Time;durP1;ratioP1;P1;durP2;ratioP2;P2;SDS_P1;SDS_P2;PMS_P1;PMS_P2;Temp;Humidity;BMP_temperature;BMP_pressure;BME280_temperature;BME280_humidity;BME280_pressure;Samples;Min_cycle;Max_cycle;Signal;HPM_P1;HPM_P2
2023/05/09 00:00:14;;;;;;;130.85;57.35;;;;;;;17.34;100.00;101702.53;4977116;28;20038;-75
2023/05/09 00:02:44;;;;;;;113.18;56.83;;;;;;;17.30;100.00;101703.75;4974749;28;20101;-75
2023/05/09 00:05:10;;;;;;;124.30;57.33;;;;;;;17.22;100.00;101697.22;4983831;28;20069;-75
2023/05/09 00:07:36;;;;;;;120.03;55.97;;;;;;;16.96;100.00;101692.00;4983813;28;20588;-75
2023/05/09 00:10:04;;;;;;;112.05;54.35;;;;;;;17.04;100.00;101686.03;4986677;28;20815;-74
2023/05/09 00:12:30;;;;;;;116.50;54.47;;;;;;;17.07;100.00;101686.69;4987709;28;20047;-75
2023/05/09 00:14:55;;;;;;;110.70;54.65;;;;;;;17.13;100.00;101681.78;4982076;28;20057;-75
2023/05/09 00:17:25;;;;;;;117.85;55.53;;;;;;;17.09;100.00;101686.56;4992754;28;20042;-74
2023/05/09 00:19:51;;;;;;;111.30;52.17;;;;;;;17.03;100.00;101685.19;4977730;28;20043;-74
2023/05/09 00:22:21;;;;;;;105.35;50.00;;;;;;;17.00;100.00;101684.56;4978703;28;20073;-75
2023/05/09 00:24:48;;;;;;;103.63;52.22;;;;;;;16.95;100.00;101678.66;4980972;28;20030;-73
2023/05/09 00:27:14;;;;;;;105.25;51.00;;;;;;;16.96;100.00;101669.59;4985732;28;20042;-73
2023/05/09 00:29:40;;;;;;;125.03;55.80;;;;;;;16.94;100.00;101675.13;4978881;28;20043;-73
2023/05/09 00:32:06;;;;;;;134.90;56.17;;;;;;;16.90;100.00;101670.06;4988647;28;20045;-76
2023/05/09 00:34:32;;;;;;;135.38;56.97;;;;;;;16.88;100.00;101667.50;4990671;28;20112;-76
2023/05/09 00:36:57;;;;;;;116.50;56.88;;;;;;;16.92;100.00;101662.72;4984076;28;20075;-76
2023/05/09 00:39:23;;;;;;;119.50;52.80;;;;;;;17.00;100.00;101650.38;4982957;28;20541;-74
2023/05/09 00:41:50;;;;;;;126.10;55.90;;;;;;;17.04;100.00;101648.31;4983791;28;20034;-74
2023/05/09 00:44:15;;;;;;;126.25;56.75;;;;;;;17.05;100.00;101647.34;4981108;28;20038;-73
2023/05/09 00:46:42;;;;;;;125.10;54.97;;;;;;;17.04;100.00;101651.88;4992504;28;20066;-73
2023/05/09 00:49:07;;;;;;;135.50;59.20;;;;;;;16.98;100.00;101641.56;4963442;28;20043;-73
2023/05/09 00:51:36;;;;;;;128.60;57.95;;;;;;;17.07;100.00;101648.09;4986406;28;20508;-73
2023/05/09 00:54:01;;;;;;;128.18;58.83;;;;;;;17.04;100.00;101633.00;4984551;28;20103;-75
2023/05/09 00:56:27;;;;;;;123.05;56.70;;;;;;;17.04;100.00;101627.63;4978123;28;20031;-75
2023/05/09 00:58:54;;;;;;;135.85;58.70;;;;;;;17.04;100.00;101633.00;4981129;28;20047;-75
2023/05/09 01:01:20;;;;;;;124.53;56.22;;;;;;;16.86;100.00;101634.41;4985156;28;20045;-75
2023/05/09 01:03:46;;;;;;;130.50;58.90;;;;;;;16.80;100.00;101630.38;4982272;28;20166;-75
2023/05/09 01:06:18;;;;;;;113.82;52.80;;;;;;;16.90;100.00;101633.22;4994027;28;20102;-75
2023/05/09 01:09:09;;;;;;;98.80;46.67;;;;;;;16.83;100.00;101627.44;4976721;28;20047;-75
2023/05/09 01:11:42;;;;;;;123.07;55.20;;;;;;;16.85;100.00;101621.09;4968314;28;20141;-75
2023/05/09 01:14:24;;;;;;;134.25;57.25;;;;;;;16.78;100.00;101624.25;4963931;28;20762;-75
2023/05/09 01:17:05;;;;;;;124.15;56.70;;;;;;;16.82;100.00;101630.28;4966751;28;20046;-75
2023/05/09 01:19:51;;;;;;;125.80;56.42;;;;;;;16.69;100.00;101624.06;4981463;28;20046;-74
2023/05/09 01:22:19;;;;;;;117.65;55.72;;;;;;;16.73;100.00;101617.50;4963995;28;20077;-74
2023/05/09 01:25:16;;;;;;;117.03;56.42;;;;;;;16.79;100.00;101617.03;4957388;28;20035;-74
2023/05/09 01:27:59;;;;;;;117.32;52.60;;;;;;;16.83;100.00;101610.44;4964597;28;20067;-75
2023/05/09 01:30:28;;;;;;;118.53;54.15;;;;;;;16.87;100.00;101605.66;4962490;28;20066;-75
2023/05/09 01:33:00;;;;;;;127.10;56.72;;;;;;;16.90;100.00;101600.88;4979253;28;20041;-73
2023/05/09 01:35:32;;;;;;;114.47;54.13;;;;;;;16.94;100.00;101599.66;4975617;28;20066;-73
2023/05/09 01:37:58;;;;;;;136.30;57.42;;;;;;;16.96;100.00;101600.41;4967804;28;20042;-75
2023/05/09 01:40:31;;;;;;;123.05;57.45;;;;;;;16.95;100.00;101598.69;4968803;28;20485;-74
2023/05/09 01:43:02;;;;;;;111.72;54.58;;;;;;;16.95;100.00;101595.13;4963244;28;20111;-74
2023/05/09 01:45:30;;;;;;;120.53;55.20;;;;;;;16.98;100.00;101601.16;4962926;28;21085;-74
2023/05/09 01:47:57;;;;;;;114.97;55.38;;;;;;;16.98;100.00;101592.22;4960513;28;20089;-72
2023/05/09 01:50:25;;;;;;;123.70;57.17;;;;;;;16.96;100.00;101589.63;4962975;28;20035;-73
2023/05/09 01:52:54;;;;;;;122.75;56.10;;;;;;;17.03;100.00;101596.25;4977402;28;20046;-72
2023/05/09 01:55:24;;;;;;;116.25;53.75;;;;;;;17.01;100.00;101589.25;4971639;28;20039;-74
2023/05/09 01:57:52;;;;;;;131.30;57.20;;;;;;;16.98;100.00;101587.69;4968031;28;20035;-73
2023/05/09 02:00:19;;;;;;;113.65;53.70;;;;;;;17.01;100.00;101586.56;4970744;28;20744;-73
2023/05/09 02:02:45;;;;;;;121.88;55.05;;;;;;;17.01;100.00;101591.97;4968375;28;20035;-73
2023/05/09 02:05:12;;;;;;;118.13;54.00;;;;;;;17.00;100.00;101588.41;4984268;28;20042;-73
2023/05/09 02:07:40;;;;;;;125.13;56.42;;;;;;;17.03;100.00;101585.50;4968500;28;20043;-74
2023/05/09 02:10:09;;;;;;;146.38;60.05;;;;;;;17.04;100.00;101587.19;4964095;28;20045;-76
2023/05/09 02:12:36;;;;;;;140.50;59.20;;;;;;;17.01;100.00;101583.88;4967831;28;20087;-75
2023/05/09 02:15:02;;;;;;;117.25;54.42;;;;;;;17.04;100.00;101579.09;4968979;28;20109;-75
2023/05/09 02:17:30;;;;;;;134.50;58.05;;;;;;;17.04;100.00;101583.66;4971412;28;20165;-75
2023/05/09 02:19:56;;;;;;;129.40;56.33;;;;;;;17.03;100.00;101582.78;4961377;28;20134;-75
2023/05/09 02:22:21;;;;;;;141.13;59.55;;;;;;;17.03;100.00;101581.94;4966823;28;20031;-75
2023/05/09 02:24:47;;;;;;;123.15;54.50;;;;;;;17.03;100.00;101582.78;4968759;28;20038;-75
2023/05/09 02:27:14;;;;;;;124.88;53.92;;;;;;;17.01;100.00;101576.66;4968651;28;20050;-75
2023/05/09 02:29:47;;;;;;;128.32;56.80;;;;;;;16.99;100.00;101580.47;4969242;28;20118;-75
2023/05/09 02:32:22;;;;;;;136.07;56.95;;;;;;;17.03;100.00;101582.78;4968666;28;20050;-74
2023/05/09 02:34:51;;;;;;;126.43;54.17;;;;;;;17.04;100.00;101586.34;4982355;28;20035;-74
2023/05/09 02:37:17;;;;;;;133.93;56.55;;;;;;;16.98;100.00;101576.91;4965085;28;20030;-74
2023/05/09 02:39:43;;;;;;;129.32;56.00;;;;;;;16.97;100.00;101575.19;4969588;28;20038;-73
2023/05/09 02:42:10;;;;;;;130.57;54.17;;;;;;;16.96;100.00;101569.91;4965706;28;20039;-74
2023/05/09 02:44:37;;;;;;;131.32;55.83;;;;;;;16.95;100.00;101566.34;4957947;28;20034;-74
2023/05/09 02:47:05;;;;;;;127.13;54.85;;;;;;;16.99;100.00;101562.44;4964538;28;20062;-74
2023/05/09 02:49:32;;;;;;;142.50;58.08;;;;;;;16.91;100.00;101564.03;4964100;28;20556;-74
2023/05/09 02:51:59;;;;;;;136.70;56.65;;;;;;;16.89;100.00;101564.16;4979123;28;20039;-74
2023/05/09 02:54:25;;;;;;;133.93;58.13;;;;;;;16.86;100.00;101563.53;4965469;28;20630;-74
2023/05/09 02:56:51;;;;;;;131.77;55.55;;;;;;;16.69;100.00;101554.91;4969322;28;20034;-74
2023/05/09 02:59:19;;;;;;;125.18;54.47;;;;;;;16.66;100.00;101557.81;4973605;28;20043;-73
2023/05/09 03:01:45;;;;;;;151.30;59.42;;;;;;;16.63;100.00;101555.38;4952314;28;20629;-74
2023/05/09 03:04:10;;;;;;;128.32;54.90;;;;;;;16.80;100.00;101556.78;4961879;28;20098;-74
2023/05/09 03:06:36;;;;;;;132.68;57.22;;;;;;;16.87;100.00;101549.06;4977633;28;20039;-74
2023/05/09 03:09:02;;;;;;;135.88;56.63;;;;;;;16.83;100.00;101541.25;4967653;28;20046;-74
2023/05/09 03:11:29;;;;;;;137.05;57.25;;;;;;;16.78;100.00;101542.59;4979967;28;20035;-74
2023/05/09 03:13:55;;;;;;;128.65;54.72;;;;;;;16.78;100.00;101540.75;4963555;28;20091;-75
2023/05/09 03:16:21;;;;;;;131.35;55.75;;;;;;;16.70;100.00;101542.28;4979778;28;20039;-73
2023/05/09 03:18:47;;;;;;;147.77;62.58;;;;;;;16.76;100.00;101541.84;4964270;28;20554;-74
2023/05/09 03:21:12;;;;;;;149.25;60.72;;;;;;;16.63;100.00;101539.22;4967992;28;20039;-74
2023/05/09 03:23:41;;;;;;;151.20;60.28;;;;;;;16.53;100.00;101540.91;4968604;28;20121;-75
2023/05/09 03:26:07;;;;;;;141.85;58.88;;;;;;;16.54;100.00;101531.84;4970194;28;20039;-74
2023/05/09 03:28:33;;;;;;;158.40;62.22;;;;;;;16.51;100.00;101532.94;4983090;28;21052;-73
2023/05/09 03:31:03;;;;;;;161.48;61.72;;;;;;;16.61;100.00;101534.91;4977947;28;20234;-74
2023/05/09 03:33:30;;;;;;;150.07;60.28;;;;;;;16.54;100.00;101538.09;4984469;28;20038;-74
2023/05/09 03:35:58;;;;;;;140.55;60.25;;;;;;;16.70;100.00;101521.59;4973498;28;20038;-74
2023/05/09 03:38:24;;;;;;;150.52;59.85;;;;;;;16.76;100.00;101518.44;4971858;28;20101;-73
2023/05/09 03:40:50;;;;;;;149.75;60.08;;;;;;;16.76;100.00;101517.59;4968705;28;20106;-74
2023/05/09 03:43:16;;;;;;;151.25;60.08;;;;;;;16.78;100.00;101516.50;4983381;28;20039;-74
2023/05/09 03:45:42;;;;;;;149.32;58.78;;;;;;;16.78;100.00;101516.50;4968740;28;20045;-73
2023/05/09 03:48:10;;;;;;;150.20;62.15;;;;;;;16.78;100.00;101513.81;4968969;28;20050;-74
2023/05/09 03:50:41;;;;;;;149.73;62.43;;;;;;;16.81;100.00;101513.56;4978905;28;20182;-74
2023/05/09 03:53:09;;;;;;;151.15;60.08;;;;;;;16.69;100.00;101525.28;4977027;28;20057;-74
2023/05/09 03:55:36;;;;;;;141.05;59.50;;;;;;;16.70;100.00;101515.34;4967515;28;20034;-75
2023/05/09 03:58:05;;;;;;;141.10;61.90;;;;;;;16.62;100.00;101513.28;4965232;28;20036;-74
2023/05/09 04:00:36;;;;;;;140.98;60.95;;;;;;;16.66;100.00;101511.19;4980487;28;20058;-74
2023/05/09 04:03:08;;;;;;;144.23;59.53;;;;;;;16.59;100.00;101505.44;4966033;28;20413;-74
2023/05/09 04:05:39;;;;;;;151.07;62.67;;;;;;;16.58;100.00;101509.09;4951660;28;20798;-74
2023/05/09 04:08:09;;;;;;;150.30;62.55;;;;;;;16.59;100.00;101516.19;4973646;28;20097;-74
2023/05/09 04:10:35;;;;;;;143.50;60.35;;;;;;;16.54;100.00;101503.09;4954432;28;20043;-74
2023/05/09 04:13:03;;;;;;;153.35;62.05;;;;;;;16.60;100.00;101496.38;4977076;28;20078;-73
2023/05/09 04:15:29;;;;;;;144.57;60.60;;;;;;;16.66;100.00;101492.34;4967023;28;20464;-74
2023/05/09 04:17:56;;;;;;;142.60;58.78;;;;;;;16.66;100.00;101489.63;4968816;28;20073;-74
2023/05/09 04:20:22;;;;;;;145.98;61.97;;;;;;;16.56;100.00;101481.41;4978386;28;20477;-74
2023/05/09 04:22:47;;;;;;;142.63;59.55;;;;;;;16.68;100.00;101477.78;4960150;28;20038;-74
2023/05/09 04:25:15;;;;;;;144.73;60.55;;;;;;;16.47;100.00;101484.84;4972403;28;20035;-74
2023/05/09 04:27:41;;;;;;;138.60;59.10;;;;;;;16.58;100.00;101479.47;4970448;28;20097;-74
2023/05/09 04:30:08;;;;;;;137.52;57.58;;;;;;;16.60;100.00;101482.91;4980497;28;20489;-74
2023/05/09 04:32:35;;;;;;;132.57;55.97;;;;;;;16.67;100.00;101477.91;4952850;28;20027;-74
2023/05/09 04:35:02;;;;;;;129.05;56.35;;;;;;;16.64;100.00;101488.91;4970144;28;20031;-74
2023/05/09 04:37:32;;;;;;;138.10;58.20;;;;;;;16.63;100.00;101487.19;4971757;28;20053;-75
2023/05/09 04:40:00;;;;;;;135.18;56.42;;;;;;;16.58;100.00;101487.56;4972618;28;20339;-74
2023/05/09 04:42:36;;;;;;;136.95;57.92;;;;;;;16.50;100.00;101487.28;4972848;28;20041;-74
2023/05/09 04:45:02;;;;;;;123.57;52.60;;;;;;;16.38;100.00;101488.25;4972549;28;20073;-74
2023/05/09 04:47:31;;;;;;;115.10;52.33;;;;;;;16.46;100.00;101488.50;4958083;28;20050;-74
2023/05/09 04:49:57;;;;;;;117.43;54.08;;;;;;;16.55;100.00;101487.78;4961372;28;20169;-74
2023/05/09 04:52:22;;;;;;;120.50;53.03;;;;;;;16.44;100.00;101487.78;4980619;28;20094;-74
2023/05/09 04:54:48;;;;;;;112.43;50.38;;;;;;;16.36;100.00;101482.97;4967120;28;20669;-74
2023/05/09 04:57:20;;;;;;;117.82;51.75;;;;;;;16.46;100.00;101478.59;4978958;28;20106;-74
2023/05/09 04:59:52;;;;;;;104.03;47.65;;;;;;;16.48;100.00;101463.19;4982499;28;20047;-74
2023/05/09 05:02:18;;;;;;;106.22;49.40;;;;;;;16.50;100.00;101469.28;4971764;28;20039;-74
2023/05/09 05:04:44;;;;;;;105.57;47.97;;;;;;;16.52;100.00;101459.28;4977256;28;20030;-74
2023/05/09 05:07:10;;;;;;;102.15;47.70;;;;;;;16.50;100.00;101461.22;4977741;28;20047;-73
2023/05/09 05:09:36;;;;;;;105.32;48.33;;;;;;;16.58;100.00;101463.31;4978781;28;20036;-72
2023/05/09 05:12:05;;;;;;;102.88;46.22;;;;;;;16.60;100.00;101465.88;4985833;28;20043;-73
2023/05/09 05:14:33;;;;;;;96.50;46.30;;;;;;;16.71;100.00;101461.41;4967463;28;20062;-73
2023/05/09 05:17:00;;;;;;;99.65;46.95;;;;;;;16.63;100.00;101457.59;4981795;28;20043;-73
2023/05/09 05:19:25;;;;;;;100.95;48.15;;;;;;;16.85;100.00;101446.84;4977004;28;20229;-73
2023/05/09 05:21:51;;;;;;;96.80;45.83;;;;;;;16.76;100.00;101443.03;4983585;28;20046;-73
2023/05/09 05:24:17;;;;;;;90.32;42.88;;;;;;;16.62;100.00;101445.06;4968439;28;20047;-72
2023/05/09 05:26:46;;;;;;;88.47;45.58;;;;;;;16.65;100.00;101439.44;4969094;28;20217;-73
2023/05/09 05:29:11;;;;;;;94.05;45.67;;;;;;;16.41;100.00;101434.16;4967363;28;20075;-73
2023/05/09 05:31:37;;;;;;;97.45;46.22;;;;;;;16.49;100.00;101424.50;4951215;28;20417;-74
2023/05/09 05:34:02;;;;;;;85.75;44.70;;;;;;;16.31;100.00;101429.53;4977362;28;20039;-73
2023/05/09 05:36:31;;;;;;;87.13;44.10;;;;;;;16.42;100.00;101422.44;4986112;28;20509;-73
2023/05/09 05:38:57;;;;;;;94.05;46.10;;;;;;;16.69;100.00;101419.38;4976951;28;20034;-72
2023/05/09 05:41:23;;;;;;;96.07;45.97;;;;;;;16.69;100.00;101411.31;4974935;28;20038;-76
2023/05/09 05:43:49;;;;;;;90.43;43.13;;;;;;;16.96;100.00;101417.19;4982882;28;20039;-75
2023/05/09 05:46:15;;;;;;;97.90;48.88;;;;;;;16.92;100.00;101404.09;4971095;28;20039;-75
2023/05/09 05:48:41;;;;;;;100.18;47.65;;;;;;;17.01;100.00;101411.41;4972338;28;20046;-74
2023/05/09 05:51:06;;;;;;;90.50;44.80;;;;;;;17.16;100.00;101409.31;4958616;28;20046;-75
2023/05/09 05:53:33;;;;;;;98.18;46.83;;;;;;;17.19;100.00;101406.38;4982678;28;20058;-74
2023/05/09 05:55:59;;;;;;;88.00;45.40;;;;;;;17.40;100.00;101403.75;4966208;28;20035;-74
2023/05/09 05:58:25;;;;;;;94.13;45.47;;;;;;;17.32;100.00;101397.16;4974322;28;20424;-74
2023/05/09 06:00:51;;;;;;;92.70;46.30;;;;;;;17.50;100.00;101399.28;4950669;28;20419;-73
2023/05/09 06:03:19;;;;;;;90.40;46.58;;;;;;;17.51;100.00;101382.13;4965999;28;20040;-74
2023/05/09 06:05:56;;;;;;;87.43;43.42;;;;;;;17.77;100.00;101388.03;4979248;28;20573;-73
2023/05/09 06:08:22;;;;;;;72.22;41.72;;;;;;;17.77;100.00;101385.34;4965644;28;20042;-73
2023/05/09 06:10:47;;;;;;;82.72;40.67;;;;;;;17.70;100.00;101370.66;4983115;28;20027;-74
2023/05/09 06:13:13;;;;;;;72.65;39.92;;;;;;;17.42;100.00;101375.69;4955751;28;20813;-73
2023/05/09 06:15:43;;;;;;;79.80;37.67;;;;;;;17.54;100.00;101368.41;4967598;28;20118;-75
2023/05/09 06:18:12;;;;;;;74.15;37.65;;;;;;;17.46;100.00;101365.47;4960878;28;20034;-74
2023/05/09 06:20:38;;;;;;;61.75;34.85;;;;;;;17.55;100.00;101359.31;4959111;28;20058;-72
2023/05/09 06:23:03;;;;;;;61.22;35.17;;;;;;;17.93;100.00;101356.09;4970029;28;20774;-71
2023/05/09 06:25:29;;;;;;;60.78;34.13;;;;;;;17.94;100.00;101362.34;4983116;28;20284;-72
2023/05/09 06:27:55;;;;;;;65.40;34.58;;;;;;;17.79;100.00;101353.72;4959342;28;20517;-74
2023/05/09 06:30:20;;;;;;;57.97;33.40;;;;;;;17.64;100.00;101358.53;4965557;28;20611;-72
2023/05/09 06:32:46;;;;;;;57.10;32.22;;;;;;;17.96;100.00;101357.66;4971375;28;20043;-72
2023/05/09 06:35:11;;;;;;;51.33;30.90;;;;;;;18.01;100.00;101344.59;4963009;28;20045;-72
2023/05/09 06:37:37;;;;;;;53.33;30.60;;;;;;;18.03;100.00;101338.09;4964375;28;20035;-73
2023/05/09 06:40:03;;;;;;;45.63;27.98;;;;;;;17.98;100.00;101337.66;4962049;28;20111;-72
2023/05/09 06:42:32;;;;;;;48.22;29.38;;;;;;;17.98;100.00;101337.66;4969479;28;20489;-73
2023/05/09 06:44:58;;;;;;;48.63;30.45;;;;;;;18.18;100.00;101326.97;4966586;28;20031;-72
2023/05/09 06:47:26;;;;;;;53.85;30.80;;;;;;;18.48;100.00;101326.09;4963877;28;20143;-73
2023/05/09 06:49:52;;;;;;;47.50;29.88;;;;;;;18.02;100.00;101325.59;4959681;28;20036;-72
2023/05/09 06:52:20;;;;;;;45.05;28.75;;;;;;;18.71;100.00;101321.34;4980813;28;20032;-73
2023/05/09 06:54:46;;;;;;;52.85;29.48;;;;;;;18.88;100.00;101324.25;4964915;28;20043;-74
2023/05/09 06:57:11;;;;;;;40.00;26.48;;;;;;;18.98;100.00;101318.88;4960862;28;20047;-73
2023/05/09 06:59:37;;;;;;;42.70;28.10;;;;;;;19.10;100.00;101312.31;4965154;28;20031;-72
2023/05/09 07:02:02;;;;;;;40.67;27.60;;;;;;;18.82;100.00;101305.00;4970172;28;20882;-73
2023/05/09 07:04:28;;;;;;;44.80;27.90;;;;;;;19.67;100.00;101299.78;4961550;28;20035;-73
2023/05/09 07:06:53;;;;;;;46.65;28.90;;;;;;;20.01;100.00;101291.16;4963435;28;20054;-73
2023/05/09 07:09:19;;;;;;;46.90;30.42;;;;;;;19.76;100.00;101300.78;4983804;28;20038;-72
2023/05/09 07:11:45;;;;;;;40.50;27.17;;;;;;;19.85;100.00;101291.78;4966371;28;20134;-72
2023/05/09 07:14:11;;;;;;;45.00;27.42;;;;;;;20.05;100.00;101289.03;4970012;28;20050;-73
2023/05/09 07:16:36;;;;;;;43.58;28.20;;;;;;;20.27;100.00;101277.81;4970603;28;20097;-75
2023/05/09 07:19:02;;;;;;;44.17;29.02;;;;;;;20.23;100.00;101279.13;4963184;28;20350;-71
2023/05/09 07:21:27;;;;;;;48.38;30.65;;;;;;;19.86;100.00;101284.53;4961219;28;20043;-73
2023/05/09 07:23:53;;;;;;;43.58;28.52;;;;;;;20.15;100.00;101277.16;4962897;28;20122;-74
2023/05/09 07:26:18;;;;;;;51.42;30.27;;;;;;;20.23;100.00;101268.31;4965725;28;20461;-73
2023/05/09 07:28:44;;;;;;;45.75;30.85;;;;;;;20.01;100.00;101274.94;4963503;28;20094;-74
2023/05/09 07:31:10;;;;;;;45.17;29.15;;;;;;;20.06;100.00;101272.63;4957133;28;20115;-74
2023/05/09 07:33:36;;;;;;;46.95;28.35;;;;;;;20.22;100.00;101272.00;4963211;28;20536;-74
2023/05/09 07:36:01;;;;;;;45.03;29.75;;;;;;;20.42;100.00;101267.31;4962617;28;20110;-74
2023/05/09 07:38:27;;;;;;;42.90;28.80;;;;;;;19.96;100.00;101268.25;4969378;28;20039;-74
2023/05/09 07:40:52;;;;;;;43.65;30.17;;;;;;;20.39;100.00;101271.22;4957941;28;20039;-74
2023/05/09 07:43:18;;;;;;;46.75;27.98;;;;;;;20.59;100.00;101265.72;4965873;28;20042;-73
2023/05/09 07:45:45;;;;;;;41.63;28.50;;;;;;;20.65;100.00;101260.53;4958015;28;20118;-74
2023/05/09 07:48:11;;;;;;;45.47;28.70;;;;;;;20.93;100.00;101260.47;4964829;28;20102;-74
2023/05/09 07:50:37;;;;;;;43.17;27.25;;;;;;;20.66;100.00;101247.84;4967874;28;20153;-74
2023/05/09 07:53:02;;;;;;;37.67;25.45;;;;;;;20.58;100.00;101243.19;4969349;28;20035;-73
2023/05/09 07:55:28;;;;;;;39.22;24.40;;;;;;;20.99;100.00;101253.59;4964463;28;20497;-73
2023/05/09 07:57:54;;;;;;;42.35;27.20;;;;;;;20.82;100.00;101239.84;4976262;28;20255;-72
2023/05/09 08:00:22;;;;;;;36.92;25.77;;;;;;;21.21;100.00;101234.97;4979788;28;20059;-74
2023/05/09 08:02:52;;;;;;;41.17;26.38;;;;;;;21.13;100.00;101228.63;4979580;28;20035;-75
2023/05/09 08:05:18;;;;;;;39.17;25.88;;;;;;;20.80;100.00;101224.78;4953568;28;20046;-74
2023/05/09 08:07:45;;;;;;;37.88;24.80;;;;;;;21.14;100.00;101228.47;4942377;28;20564;-74
2023/05/09 08:10:11;;;;;;;39.53;25.70;;;;;;;20.94;100.00;101225.09;4980374;28;20082;-73
2023/05/09 08:12:36;;;;;;;36.30;24.73;;;;;;;21.16;100.00;101218.31;4946816;28;20158;-75
2023/05/09 08:15:02;;;;;;;35.10;23.08;;;;;;;21.23;100.00;101210.41;4961691;28;20346;-73
2023/05/09 08:17:28;;;;;;;35.40;23.80;;;;;;;21.92;100.00;101209.53;4955602;28;20818;-72
2023/05/09 08:19:53;;;;;;;34.53;21.30;;;;;;;21.46;94.25;101200.78;4960620;28;20043;-73
2023/05/09 08:22:19;;;;;;;30.80;20.23;;;;;;;21.47;94.75;101207.03;4960243;28;20530;-73
2023/05/09 08:24:45;;;;;;;34.90;22.23;;;;;;;21.55;92.01;101198.13;4957628;28;20043;-73
2023/05/09 08:27:12;;;;;;;36.05;22.08;;;;;;;21.89;94.27;101201.72;4973576;28;20035;-72
2023/05/09 08:29:39;;;;;;;35.00;20.90;;;;;;;21.84;94.00;101197.75;4963305;28;20035;-74
2023/05/09 08:32:05;;;;;;;35.45;22.17;;;;;;;21.82;97.75;101195.22;4978101;28;20045;-74
2023/05/09 08:34:33;;;;;;;33.35;22.38;;;;;;;21.54;94.88;101191.84;4964866;28;20074;-73
2023/05/09 08:37:03;;;;;;;36.17;23.17;;;;;;;21.69;94.25;101194.81;4960542;28;20091;-74
2023/05/09 08:39:29;;;;;;;30.83;20.80;;;;;;;21.06;98.86;101198.56;4978112;28;20027;-73
2023/05/09 08:42:02;;;;;;;29.60;19.85;;;;;;;21.83;95.24;101191.47;4972860;28;20043;-74
2023/05/09 08:44:30;;;;;;;25.17;19.05;;;;;;;22.23;92.21;101181.84;4960586;28;20038;-73
2023/05/09 08:46:59;;;;;;;30.08;20.65;;;;;;;22.40;93.44;101190.91;4974978;28;21120;-72
2023/05/09 08:49:26;;;;;;;29.02;20.38;;;;;;;22.32;91.98;101183.56;4967142;28;20032;-74
2023/05/09 08:51:53;;;;;;;29.92;20.80;;;;;;;21.76;89.25;101174.16;4955570;28;20711;-73
2023/05/09 08:54:20;;;;;;;28.85;21.23;;;;;;;22.00;91.51;101172.56;4962027;28;20178;-73
2023/05/09 08:56:46;;;;;;;30.40;21.63;;;;;;;21.29;92.01;101170.97;4972433;28;20151;-74
2023/05/09 08:59:12;;;;;;;27.23;19.08;;;;;;;21.36;94.74;101170.19;4971170;28;20031;-73
2023/05/09 09:01:39;;;;;;;25.83;19.25;;;;;;;21.58;94.63;101170.66;4972313;28;20039;-72
2023/05/09 09:04:07;;;;;;;26.20;19.13;;;;;;;21.53;91.52;101162.97;4960788;28;20043;-73
2023/05/09 09:06:34;;;;;;;27.52;19.95;;;;;;;21.44;94.56;101161.25;4963376;28;20313;-73
2023/05/09 09:09:01;;;;;;;29.98;19.65;;;;;;;21.67;93.82;101159.69;4963038;28;20039;-73
2023/05/09 09:11:30;;;;;;;25.67;19.15;;;;;;;21.45;97.89;101163.81;4953980;28;20116;-73
2023/05/09 09:14:00;;;;;;;29.42;18.92;;;;;;;21.72;95.70;101154.59;4968329;28;20039;-73
2023/05/09 09:16:27;;;;;;;26.55;18.95;;;;;;;21.41;93.03;101150.72;4960997;28;20070;-73
2023/05/09 09:18:54;;;;;;;25.98;18.17;;;;;;;21.55;96.54;101150.13;4961659;28;20035;-72
2023/05/09 09:21:20;;;;;;;26.50;17.58;;;;;;;20.69;96.43;101158.09;4960505;28;20365;-72
2023/05/09 09:23:47;;;;;;;24.85;18.58;;;;;;;20.83;97.28;101151.25;4972023;28;20042;-73
2023/05/09 09:26:13;;;;;;;28.63;18.38;;;;;;;20.54;100.00;101152.38;4981299;28;20059;-73
2023/05/09 09:28:39;;;;;;;27.30;18.55;;;;;;;20.97;100.00;101150.69;4983008;28;20047;-72
2023/05/09 09:31:24;;;;;;;26.58;19.50;;;;;;;21.04;98.90;101135.53;4986079;28;20033;-73
2023/05/09 09:33:50;;;;;;;29.98;19.27;;;;;;;20.94;99.28;101143.75;4968024;28;20289;-73
2023/05/09 09:36:26;;;;;;;25.40;18.13;;;;;;;20.94;100.00;101143.75;4958404;28;20037;-75
2023/05/09 09:38:57;;;;;;;26.95;19.48;;;;;;;20.83;100.00;101140.41;4972803;28;20042;-74
2023/05/09 09:41:29;;;;;;;30.60;18.45;;;;;;;20.99;100.00;101135.16;4963087;28;20066;-74
2023/05/09 09:43:55;;;;;;;28.02;19.35;;;;;;;20.73;100.00;101134.22;4979414;28;20126;-74
2023/05/09 09:46:20;;;;;;;28.58;20.08;;;;;;;20.64;100.00;101136.03;4963404;28;20078;-74
2023/05/09 09:48:51;;;;;;;29.23;19.00;;;;;;;20.24;100.00;101131.03;4970275;28;20050;-74
2023/05/09 09:51:17;;;;;;;26.25;19.20;;;;;;;19.94;100.00;101138.47;4957083;28;20039;-75
2023/05/09 09:53:43;;;;;;;28.67;20.08;;;;;;;20.25;100.00;101136.28;4972496;28;20043;-75
2023/05/09 09:56:09;;;;;;;31.42;18.95;;;;;;;20.27;100.00;101128.84;4984890;28;20102;-75
2023/05/09 09:58:35;;;;;;;24.27;19.05;;;;;;;20.57;100.00;101127.66;4970106;28;20039;-74
2023/05/09 10:01:06;;;;;;;30.17;19.83;;;;;;;20.72;100.00;101122.53;4975253;28;20315;-74
2023/05/09 10:03:37;;;;;;;30.55;20.20;;;;;;;20.67;100.00;101124.84;4978281;28;20590;-74
2023/05/09 10:06:02;;;;;;;27.67;18.88;;;;;;;20.80;100.00;101117.19;4964975;28;20039;-75
2023/05/09 10:08:28;;;;;;;27.55;19.52;;;;;;;20.83;100.00;101119.56;4972168;28;20039;-74
2023/05/09 10:10:53;;;;;;;26.35;18.00;;;;;;;20.64;100.00;101120.63;4972892;28;20039;-75
2023/05/09 10:13:19;;;;;;;24.63;17.40;;;;;;;20.95;100.00;101114.75;4969737;28;20750;-75
2023/05/09 10:15:46;;;;;;;34.38;17.65;;;;;;;21.23;98.13;101115.44;4978587;28;20035;-74
2023/05/09 10:18:18;;;;;;;26.17;15.55;;;;;;;21.73;95.52;101110.16;4964197;28;20573;-74
2023/05/09 10:20:45;;;;;;;24.02;15.75;;;;;;;21.57;95.32;101107.38;4965796;28;20063;-76
2023/05/09 10:23:14;;;;;;;23.10;16.35;;;;;;;22.25;94.29;101111.06;4959455;28;20038;-75
2023/05/09 10:26:05;;;;;;;21.13;15.02;;;;;;;21.88;91.89;101099.53;4973624;28;20042;-74
2023/05/09 10:28:33;;;;;;;20.33;14.57;;;;;;;22.19;89.23;101096.28;4963433;28;20556;-75
2023/05/09 10:31:18;;;;;;;25.17;15.48;;;;;;;22.04;85.79;101095.16;4969511;28;20575;-75
2023/05/09 10:33:49;;;;;;;18.10;14.57;;;;;;;21.91;86.95;101095.63;4961648;28;20752;-75
2023/05/09 10:36:20;;;;;;;16.33;13.18;;;;;;;22.13;86.35;101097.75;4959320;28;20130;-76
2023/05/09 10:38:47;;;;;;;18.10;12.73;;;;;;;22.17;85.92;101092.84;4965537;28;20090;-72
2023/05/09 10:41:14;;;;;;;22.38;13.88;;;;;;;21.73;86.12;101085.72;4959450;28;20106;-73
2023/05/09 10:43:41;;;;;;;19.92;13.05;;;;;;;21.61;87.92;101086.19;4980943;28;20035;-73
2023/05/09 10:46:07;;;;;;;17.25;13.60;;;;;;;21.33;88.12;101080.94;4980224;28;20214;-73
2023/05/09 10:48:35;;;;;;;15.82;12.43;;;;;;;21.24;88.70;101070.22;4967869;28;20039;-73
2023/05/09 10:51:01;;;;;;;20.98;12.52;;;;;;;21.06;91.02;101072.97;4981065;28;20978;-73
2023/05/09 10:53:42;;;;;;;14.77;12.32;;;;;;;21.38;91.71;101061.47;4963358;28;20420;-74
2023/05/09 10:56:08;;;;;;;17.08;13.10;;;;;;;21.43;88.92;101065.41;4965028;28;20043;-74
2023/05/09 10:58:39;;;;;;;18.85;12.40;;;;;;;21.28;90.24;101067.00;4960174;28;20173;-72
2023/05/09 11:01:05;;;;;;;22.63;13.55;;;;;;;21.20;88.48;101062.38;4973882;28;20043;-74